Swords Creek, VA (24649)

3:37 PM EST on February 14, 2016 (GMT -0500)
Gardner Va | | Change Station
CLOSE
Current Station
Personal Weather Station
Location: Honaker, VA
Elevation: 1959 ft
Nearby Weather Stations
Active Advisory: Winter Storm Warning

Elev 1959 ft 37.03 °N, 81.94 °W | Updated 21 seconds ago

Overcast
Overcast
25.5 °F
Feels Like 26 °F
N
0.0
Wind Variable Wind from SSW
Gusts 3.7 mph

Today
High -- | Low -- °F
--% Chance of Precip.
Yesterday
High -- | Low -- °F
Precip. -- in
Pressure 30.14 in
Visibility 4.0 miles
Clouds Scattered Clouds 2900 ft
Scattered Clouds 3500 ft
Overcast 4700 ft
Windchill 26 °F
Dew Point 20 °F
Humidity 80%
Rainfall in
Snow Depth Not available.
7:18 AM 6:06 PM
Waxing Crescent, 45% visible
METAR KJFZ 142015Z AUTO 12010KT 4SM -SN SCT029 SCT035 OVC047 M06/M10 A3014 RMK AO2 T10571099
Pressure 30.14 in
Visibility 4.0 miles
Clouds Scattered Clouds 2900 ft
Scattered Clouds 3500 ft
Overcast 4700 ft
Windchill 26 °F
Dew Point 20 °F
Humidity 80%
Rainfall in
Snow Depth Not available.
7:18 AM 6:06 PM
Waxing Crescent, 45% visible
METAR KJFZ 142015Z AUTO 12010KT 4SM -SN SCT029 SCT035 OVC047 M06/M10 A3014 RMK AO2 T10571099

10-Day Weather Forecast

Almanac

Astronomy

Feb. 14, 2016 Rise Set
Actual Time
Civil Twilight
Nautical Twilight
Astronomical Twilight
Moon
Length of Visible Light
Length of Day
Tomorrow will be .
, % of the Moon is Illuminated

Today's Extremes

State Highs State Lows

Community

WunderPhotos

Upload Photos

1,892,886 photos uploaded!

WunderBlog® & News

Nearby

Air Quality

  Air Quality AQ Index Pollutant
Not available.

Snow Depth

Station Depth Elevation

Earthquake Activity

City Distance Mag. Time & Date
Minimum magnitude displayed is 2.5.

Coastal Water Temperatures

Place Temperature

Stations

Nearby Weather Stations

Station Location Temp. Windchill Dew Point Humidity Wind Precip. Elev Updated Type
                   

Watches & Warnings

Winter Storm Warning
Issued: 3:09 PM EST Feb. 14, 2016 – National Weather Service

... Winter Storm Warning remains in effect until noon EST Monday...

* event... snow and sleet accumulations of 2 to 5 inches are
expected... with 3 to 6 inches possible across some higher
elevation areas of southwest Virginia. In addition... a few areas
may see some freezing rain with ice accumulations of less than a
tenth of an inch.

* Timing... snow this afternoon will gradually transition to a mix
of snow... sleet... freezing rain and rain tonight and Monday
morning before changing to all rain Monday afternoon.

* Impacts... snow and ice will make driving conditions hazardous.

Precautionary/preparedness actions...

A Winter Storm Warning means severe winter weather conditions are
expected or occurring. Significant amounts of snow... sleet...
and/or freezing rain are expected... causing hazardous driving
conditions. Travel is discouraged. If travel is unavoidable...
keep an extra flashlight... food... and water in your vehicle in
case of an emergency.